sensor_id;sensor_type;location;lat;lon;timestamp;P1;durP1;ratioP1;P2;durP2;ratioP2
60018;SDS011;45870;42.528;26.740;2023-03-25T00:55:19;0.43;;;0.43;;
60018;SDS011;45870;42.528;26.740;2023-03-25T00:57:45;1.08;;;0.55;;
60018;SDS011;45870;42.528;26.740;2023-03-25T01:00:12;0.10;;;0.10;;
60018;SDS011;45870;42.528;26.740;2023-03-25T01:02:40;0.73;;;0.40;;
60018;SDS011;45870;42.528;26.740;2023-03-25T01:05:06;0.85;;;0.40;;
60018;SDS011;45870;42.528;26.740;2023-03-25T01:07:34;0.47;;;0.47;;
60018;SDS011;45870;42.528;26.740;2023-03-25T01:10:02;1.38;;;1.27;;
60018;SDS011;45870;42.528;26.740;2023-03-25T01:12:28;1.77;;;0.73;;
60018;SDS011;45870;42.528;26.740;2023-03-25T01:14:54;1.55;;;0.45;;
60018;SDS011;45870;42.528;26.740;2023-03-25T01:17:20;0.80;;;0.22;;
60018;SDS011;45870;42.528;26.740;2023-03-25T01:19:46;0.50;;;0.32;;
60018;SDS011;45870;42.528;26.740;2023-03-25T01:22:12;0.17;;;0.17;;
60018;SDS011;45870;42.528;26.740;2023-03-25T01:24:37;0.55;;;0.15;;
60018;SDS011;45870;42.528;26.740;2023-03-25T01:27:03;0.88;;;0.65;;
60018;SDS011;45870;42.528;26.740;2023-03-25T01:29:29;0.25;;;0.25;;
60018;SDS011;45870;42.528;26.740;2023-03-25T01:31:55;0.75;;;0.70;;
60018;SDS011;45870;42.528;26.740;2023-03-25T01:34:21;0.22;;;0.15;;
60018;SDS011;45870;42.528;26.740;2023-03-25T01:36:48;0.70;;;0.65;;
60018;SDS011;45870;42.528;26.740;2023-03-25T01:39:16;0.35;;;0.35;;
60018;SDS011;45870;42.528;26.740;2023-03-25T01:41:45;0.60;;;0.43;;
60018;SDS011;45870;42.528;26.740;2023-03-25T01:46:38;0.20;;;0.15;;
60018;SDS011;45870;42.528;26.740;2023-03-25T01:49:10;0.82;;;0.73;;
60018;SDS011;45870;42.528;26.740;2023-03-25T01:51:45;1.40;;;0.47;;
60018;SDS011;45870;42.528;26.740;2023-03-25T01:54:14;0.20;;;0.20;;
60018;SDS011;45870;42.528;26.740;2023-03-25T01:56:44;0.98;;;0.52;;
60018;SDS011;45870;42.528;26.740;2023-03-25T01:59:11;0.40;;;0.30;;
60018;SDS011;45870;42.528;26.740;2023-03-25T02:01:42;4.05;;;1.02;;
60018;SDS011;45870;42.528;26.740;2023-03-25T02:04:09;0.77;;;0.47;;
60018;SDS011;45870;42.528;26.740;2023-03-25T02:06:40;1.75;;;0.90;;
60018;SDS011;45870;42.528;26.740;2023-03-25T02:09:08;0.90;;;0.90;;
60018;SDS011;45870;42.528;26.740;2023-03-25T02:11:36;1.70;;;0.70;;
60018;SDS011;45870;42.528;26.740;2023-03-25T02:14:06;1.42;;;0.45;;
60018;SDS011;45870;42.528;26.740;2023-03-25T02:16:44;0.60;;;0.43;;
60018;SDS011;45870;42.528;26.740;2023-03-25T02:19:27;0.35;;;0.35;;
60018;SDS011;45870;42.528;26.740;2023-03-25T07:19:16;4.10;;;2.03;;
60018;SDS011;45870;42.528;26.740;2023-03-25T07:21:41;6.03;;;1.98;;
60018;SDS011;45870;42.528;26.740;2023-03-25T07:24:07;2.78;;;1.52;;
60018;SDS011;45870;42.528;26.740;2023-03-25T07:26:33;5.97;;;1.95;;
60018;SDS011;45870;42.528;26.740;2023-03-25T07:31:13;3.47;;;1.65;;
60018;SDS011;45870;42.528;26.740;2023-03-25T07:36:11;4.40;;;2.13;;
60018;SDS011;45870;42.528;26.740;2023-03-25T07:38:38;2.47;;;1.20;;
60018;SDS011;45870;42.528;26.740;2023-03-25T07:41:09;5.25;;;1.60;;
60018;SDS011;45870;42.528;26.740;2023-03-25T07:43:36;2.20;;;1.42;;
60018;SDS011;45870;42.528;26.740;2023-03-25T07:46:02;4.57;;;2.13;;
60018;SDS011;45870;42.528;26.740;2023-03-25T07:48:28;5.78;;;2.30;;
60018;SDS011;45870;42.528;26.740;2023-03-25T07:50:54;2.42;;;1.10;;
60018;SDS011;45870;42.528;26.740;2023-03-25T07:53:20;3.58;;;1.73;;
60018;SDS011;45870;42.528;26.740;2023-03-25T07:55:46;8.40;;;1.90;;
60018;SDS011;45870;42.528;26.740;2023-03-25T07:58:14;4.07;;;2.40;;
60018;SDS011;45870;42.528;26.740;2023-03-25T08:00:41;5.70;;;2.00;;
60018;SDS011;45870;42.528;26.740;2023-03-25T08:03:08;3.83;;;1.90;;
60018;SDS011;45870;42.528;26.740;2023-03-25T08:05:36;4.15;;;2.15;;
60018;SDS011;45870;42.528;26.740;2023-03-25T08:08:03;3.15;;;1.77;;
60018;SDS011;45870;42.528;26.740;2023-03-25T08:10:30;5.47;;;2.42;;
60018;SDS011;45870;42.528;26.740;2023-03-25T08:12:56;4.40;;;1.48;;
60018;SDS011;45870;42.528;26.740;2023-03-25T08:15:21;2.33;;;1.20;;
60018;SDS011;45870;42.528;26.740;2023-03-25T08:17:49;2.08;;;1.10;;
60018;SDS011;45870;42.528;26.740;2023-03-25T08:20:16;2.13;;;1.40;;
60018;SDS011;45870;42.528;26.740;2023-03-25T08:22:45;1.67;;;1.08;;
60018;SDS011;45870;42.528;26.740;2023-03-25T08:25:11;2.55;;;1.10;;
60018;SDS011;45870;42.528;26.740;2023-03-25T10:25:13;2.05;;;1.05;;
60018;SDS011;45870;42.528;26.740;2023-03-25T10:27:47;2.90;;;1.60;;
